sensor_id;sensor_type;location;lat;lon;timestamp;P1;durP1;ratioP1;P2;durP2;ratioP2
4274;SDS011;2151;50.988;11.068;2023-05-16T00:00:43;127.20;;;11.10;;
4274;SDS011;2151;50.988;11.068;2023-05-16T00:03:10;124.83;;;11.57;;
4274;SDS011;2151;50.988;11.068;2023-05-16T00:05:37;123.57;;;11.33;;
4274;SDS011;2151;50.988;11.068;2023-05-16T00:08:04;124.73;;;12.10;;
4274;SDS011;2151;50.988;11.068;2023-05-16T00:10:31;127.57;;;12.70;;
4274;SDS011;2151;50.988;11.068;2023-05-16T00:12:57;125.27;;;12.80;;
4274;SDS011;2151;50.988;11.068;2023-05-16T00:15:27;125.40;;;11.70;;
4274;SDS011;2151;50.988;11.068;2023-05-16T00:17:55;126.23;;;12.37;;
4274;SDS011;2151;50.988;11.068;2023-05-16T00:20:25;131.60;;;12.60;;
4274;SDS011;2151;50.988;11.068;2023-05-16T00:22:53;124.47;;;11.97;;
4274;SDS011;2151;50.988;11.068;2023-05-16T00:25:19;125.77;;;11.93;;
4274;SDS011;2151;50.988;11.068;2023-05-16T00:27:46;124.30;;;12.07;;
4274;SDS011;2151;50.988;11.068;2023-05-16T00:30:13;125.80;;;12.60;;
4274;SDS011;2151;50.988;11.068;2023-05-16T00:32:39;125.67;;;12.07;;
4274;SDS011;2151;50.988;11.068;2023-05-16T00:35:06;130.10;;;12.63;;
4274;SDS011;2151;50.988;11.068;2023-05-16T00:37:35;127.17;;;13.63;;
4274;SDS011;2151;50.988;11.068;2023-05-16T00:40:02;126.70;;;12.10;;
4274;SDS011;2151;50.988;11.068;2023-05-16T00:42:30;126.63;;;12.60;;
4274;SDS011;2151;50.988;11.068;2023-05-16T00:44:56;125.30;;;12.33;;
4274;SDS011;2151;50.988;11.068;2023-05-16T00:47:22;125.03;;;12.60;;
4274;SDS011;2151;50.988;11.068;2023-05-16T00:49:49;128.97;;;12.83;;
4274;SDS011;2151;50.988;11.068;2023-05-16T00:52:15;127.17;;;12.63;;
4274;SDS011;2151;50.988;11.068;2023-05-16T00:54:42;127.90;;;13.30;;
4274;SDS011;2151;50.988;11.068;2023-05-16T00:57:08;130.17;;;13.40;;
4274;SDS011;2151;50.988;11.068;2023-05-16T00:59:35;130.17;;;13.63;;
4274;SDS011;2151;50.988;11.068;2023-05-16T01:02:01;128.70;;;13.57;;
4274;SDS011;2151;50.988;11.068;2023-05-16T01:04:27;130.33;;;13.57;;
4274;SDS011;2151;50.988;11.068;2023-05-16T01:06:55;125.87;;;12.90;;
4274;SDS011;2151;50.988;11.068;2023-05-16T01:09:22;129.57;;;13.23;;
4274;SDS011;2151;50.988;11.068;2023-05-16T01:27:42;129.50;;;12.77;;
4274;SDS011;2151;50.988;11.068;2023-05-16T01:30:12;128.67;;;13.13;;
4274;SDS011;2151;50.988;11.068;2023-05-16T01:32:38;133.03;;;13.87;;
4274;SDS011;2151;50.988;11.068;2023-05-16T01:35:04;136.43;;;12.47;;
4274;SDS011;2151;50.988;11.068;2023-05-16T01:37:35;126.33;;;12.60;;
4274;SDS011;2151;50.988;11.068;2023-05-16T01:40:03;129.40;;;13.77;;
4274;SDS011;2151;50.988;11.068;2023-05-16T01:42:34;134.27;;;15.93;;
4274;SDS011;2151;50.988;11.068;2023-05-16T01:45:05;131.27;;;15.50;;
4274;SDS011;2151;50.988;11.068;2023-05-16T01:47:33;134.07;;;17.17;;
4274;SDS011;2151;50.988;11.068;2023-05-16T01:50:22;135.27;;;15.77;;
4274;SDS011;2151;50.988;11.068;2023-05-16T01:58:03;135.60;;;17.70;;
4274;SDS011;2151;50.988;11.068;2023-05-16T02:00:30;132.30;;;16.70;;
4274;SDS011;2151;50.988;11.068;2023-05-16T02:02:57;135.47;;;17.47;;
4274;SDS011;2151;50.988;11.068;2023-05-16T02:05:23;133.30;;;16.97;;
4274;SDS011;2151;50.988;11.068;2023-05-16T02:07:50;134.87;;;18.57;;
4274;SDS011;2151;50.988;11.068;2023-05-16T02:10:16;135.13;;;18.47;;
4274;SDS011;2151;50.988;11.068;2023-05-16T02:12:43;136.00;;;18.63;;
4274;SDS011;2151;50.988;11.068;2023-05-16T02:15:09;138.50;;;19.50;;
4274;SDS011;2151;50.988;11.068;2023-05-16T02:17:36;139.80;;;18.80;;
4274;SDS011;2151;50.988;11.068;2023-05-16T02:20:02;137.90;;;18.53;;
4274;SDS011;2151;50.988;11.068;2023-05-16T02:22:32;135.37;;;17.73;;
4274;SDS011;2151;50.988;11.068;2023-05-16T02:24:59;136.17;;;18.87;;
4274;SDS011;2151;50.988;11.068;2023-05-16T02:27:26;139.80;;;18.87;;
4274;SDS011;2151;50.988;11.068;2023-05-16T02:29:52;136.27;;;19.50;;
4274;SDS011;2151;50.988;11.068;2023-05-16T02:32:19;140.83;;;18.93;;
4274;SDS011;2151;50.988;11.068;2023-05-16T02:34:45;137.23;;;19.90;;
4274;SDS011;2151;50.988;11.068;2023-05-16T02:37:12;143.60;;;21.60;;
4274;SDS011;2151;50.988;11.068;2023-05-16T02:39:38;138.67;;;18.40;;
4274;SDS011;2151;50.988;11.068;2023-05-16T02:42:05;136.90;;;18.50;;
4274;SDS011;2151;50.988;11.068;2023-05-16T02:44:32;137.40;;;19.47;;
4274;SDS011;2151;50.988;11.068;2023-05-16T02:46:58;136.07;;;19.77;;
4274;SDS011;2151;50.988;11.068;2023-05-16T02:49:25;135.40;;;18.40;;
4274;SDS011;2151;50.988;11.068;2023-05-16T02:51:51;138.40;;;18.67;;
4274;SDS011;2151;50.988;11.068;2023-05-16T02:54:17;135.87;;;19.07;;
4274;SDS011;2151;50.988;11.068;2023-05-16T02:56:44;134.07;;;17.87;;
4274;SDS011;2151;50.988;11.068;2023-05-16T02:59:11;135.07;;;18.63;;
4274;SDS011;2151;50.988;11.068;2023-05-16T03:01:38;138.10;;;16.53;;
4274;SDS011;2151;50.988;11.068;2023-05-16T03:04:04;134.70;;;15.67;;
4274;SDS011;2151;50.988;11.068;2023-05-16T03:06:31;136.70;;;17.50;;
4274;SDS011;2151;50.988;11.068;2023-05-16T03:08:57;131.57;;;15.40;;
4274;SDS011;2151;50.988;11.068;2023-05-16T03:11:24;133.23;;;15.70;;
4274;SDS011;2151;50.988;11.068;2023-05-16T03:13:51;132.40;;;15.77;;
4274;SDS011;2151;50.988;11.068;2023-05-16T03:16:18;130.80;;;14.30;;
4274;SDS011;2151;50.988;11.068;2023-05-16T03:18:44;131.93;;;16.00;;
4274;SDS011;2151;50.988;11.068;2023-05-16T03:21:11;133.17;;;15.87;;
4274;SDS011;2151;50.988;11.068;2023-05-16T03:23:37;132.13;;;15.50;;
4274;SDS011;2151;50.988;11.068;2023-05-16T03:26:03;137.73;;;13.07;;
4274;SDS011;2151;50.988;11.068;2023-05-16T03:28:30;134.17;;;16.00;;
4274;SDS011;2151;50.988;11.068;2023-05-16T03:30:56;135.73;;;16.80;;
4274;SDS011;2151;50.988;11.068;2023-05-16T03:33:23;136.07;;;16.30;;
4274;SDS011;2151;50.988;11.068;2023-05-16T03:35:50;135.53;;;16.17;;
4274;SDS011;2151;50.988;11.068;2023-05-16T03:38:17;132.50;;;13.90;;
4274;SDS011;2151;50.988;11.068;2023-05-16T03:40:43;134.33;;;15.60;;
4274;SDS011;2151;50.988;11.068;2023-05-16T03:43:10;133.17;;;16.30;;
4274;SDS011;2151;50.988;11.068;2023-05-16T03:45:36;132.67;;;13.53;;
4274;SDS011;2151;50.988;11.068;2023-05-16T03:48:03;133.27;;;15.30;;
4274;SDS011;2151;50.988;11.068;2023-05-16T03:50:29;133.90;;;15.00;;
4274;SDS011;2151;50.988;11.068;2023-05-16T03:52:56;133.27;;;16.30;;
4274;SDS011;2151;50.988;11.068;2023-05-16T03:55:22;135.10;;;16.00;;
4274;SDS011;2151;50.988;11.068;2023-05-16T03:57:49;135.10;;;16.33;;
4274;SDS011;2151;50.988;11.068;2023-05-16T04:00:17;137.67;;;16.80;;
4274;SDS011;2151;50.988;11.068;2023-05-16T04:02:44;138.70;;;15.77;;
4274;SDS011;2151;50.988;11.068;2023-05-16T04:05:10;132.30;;;14.20;;
4274;SDS011;2151;50.988;11.068;2023-05-16T04:07:37;134.27;;;15.30;;
4274;SDS011;2151;50.988;11.068;2023-05-16T04:10:04;134.60;;;16.00;;
4274;SDS011;2151;50.988;11.068;2023-05-16T04:12:31;134.27;;;15.30;;
4274;SDS011;2151;50.988;11.068;2023-05-16T04:14:58;134.90;;;14.90;;
4274;SDS011;2151;50.988;11.068;2023-05-16T04:17:24;133.57;;;15.60;;
4274;SDS011;2151;50.988;11.068;2023-05-16T04:19:51;134.90;;;16.00;;
4274;SDS011;2151;50.988;11.068;2023-05-16T04:22:19;135.17;;;15.83;;
4274;SDS011;2151;50.988;11.068;2023-05-16T04:24:46;134.10;;;15.07;;
4274;SDS011;2151;50.988;11.068;2023-05-16T04:27:12;133.43;;;14.07;;
4274;SDS011;2151;50.988;11.068;2023-05-16T04:29:39;137.17;;;15.70;;
4274;SDS011;2151;50.988;11.068;2023-05-16T04:32:05;137.73;;;16.23;;
4274;SDS011;2151;50.988;11.068;2023-05-16T04:34:33;134.77;;;15.70;;
4274;SDS011;2151;50.988;11.068;2023-05-16T04:37:05;131.77;;;14.57;;
4274;SDS011;2151;50.988;11.068;2023-05-16T04:39:33;132.50;;;14.27;;
4274;SDS011;2151;50.988;11.068;2023-05-16T04:41:59;130.87;;;13.90;;
4274;SDS011;2151;50.988;11.068;2023-05-16T04:44:27;131.37;;;14.30;;
4274;SDS011;2151;50.988;11.068;2023-05-16T04:46:53;132.00;;;14.93;;
4274;SDS011;2151;50.988;11.068;2023-05-16T04:49:21;132.60;;;14.70;;
4274;SDS011;2151;50.988;11.068;2023-05-16T04:51:47;135.83;;;15.17;;
4274;SDS011;2151;50.988;11.068;2023-05-16T04:54:14;136.97;;;15.37;;
4274;SDS011;2151;50.988;11.068;2023-05-16T04:56:41;132.07;;;14.33;;
4274;SDS011;2151;50.988;11.068;2023-05-16T04:59:07;134.37;;;14.90;;
4274;SDS011;2151;50.988;11.068;2023-05-16T05:01:33;133.63;;;15.23;;
4274;SDS011;2151;50.988;11.068;2023-05-16T05:04:00;132.10;;;14.93;;
4274;SDS011;2151;50.988;11.068;2023-05-16T05:06:26;131.67;;;13.93;;
4274;SDS011;2151;50.988;11.068;2023-05-16T05:08:53;133.70;;;14.90;;
4274;SDS011;2151;50.988;11.068;2023-05-16T05:11:19;133.57;;;14.30;;
4274;SDS011;2151;50.988;11.068;2023-05-16T05:13:46;136.07;;;14.23;;
4274;SDS011;2151;50.988;11.068;2023-05-16T05:16:13;135.10;;;14.20;;
4274;SDS011;2151;50.988;11.068;2023-05-16T05:18:39;133.70;;;14.20;;
4274;SDS011;2151;50.988;11.068;2023-05-16T05:21:06;132.40;;;13.10;;
4274;SDS011;2151;50.988;11.068;2023-05-16T05:23:32;130.90;;;13.27;;
4274;SDS011;2151;50.988;11.068;2023-05-16T05:26:00;129.57;;;13.20;;
4274;SDS011;2151;50.988;11.068;2023-05-16T05:28:27;132.70;;;13.77;;
4274;SDS011;2151;50.988;11.068;2023-05-16T05:30:53;130.63;;;13.57;;
4274;SDS011;2151;50.988;11.068;2023-05-16T05:33:24;130.37;;;13.53;;
4274;SDS011;2151;50.988;11.068;2023-05-16T05:35:51;132.73;;;13.80;;
4274;SDS011;2151;50.988;11.068;2023-05-16T05:38:19;128.87;;;13.60;;
4274;SDS011;2151;50.988;11.068;2023-05-16T05:40:45;132.80;;;13.90;;
4274;SDS011;2151;50.988;11.068;2023-05-16T05:43:12;130.80;;;12.90;;
4274;SDS011;2151;50.988;11.068;2023-05-16T05:45:38;133.87;;;14.03;;
4274;SDS011;2151;50.988;11.068;2023-05-16T05:48:05;132.33;;;14.10;;
4274;SDS011;2151;50.988;11.068;2023-05-16T05:50:32;133.50;;;13.83;;
4274;SDS011;2151;50.988;11.068;2023-05-16T05:52:58;132.80;;;13.63;;
4274;SDS011;2151;50.988;11.068;2023-05-16T05:55:25;133.17;;;12.77;;
4274;SDS011;2151;50.988;11.068;2023-05-16T05:57:52;130.27;;;12.30;;
4274;SDS011;2151;50.988;11.068;2023-05-16T06:00:18;135.03;;;13.70;;
4274;SDS011;2151;50.988;11.068;2023-05-16T06:02:45;132.17;;;13.50;;
4274;SDS011;2151;50.988;11.068;2023-05-16T06:05:12;129.67;;;12.87;;
4274;SDS011;2151;50.988;11.068;2023-05-16T06:07:39;132.20;;;12.37;;
4274;SDS011;2151;50.988;11.068;2023-05-16T06:10:05;128.27;;;11.67;;
4274;SDS011;2151;50.988;11.068;2023-05-16T06:12:33;127.10;;;10.90;;
4274;SDS011;2151;50.988;11.068;2023-05-16T06:15:00;125.27;;;9.23;;
4274;SDS011;2151;50.988;11.068;2023-05-16T06:17:26;125.37;;;10.50;;
4274;SDS011;2151;50.988;11.068;2023-05-16T06:19:52;124.90;;;9.97;;
4274;SDS011;2151;50.988;11.068;2023-05-16T06:22:19;123.60;;;8.53;;
4274;SDS011;2151;50.988;11.068;2023-05-16T06:24:45;126.50;;;10.10;;
4274;SDS011;2151;50.988;11.068;2023-05-16T06:27:12;124.33;;;9.13;;
4274;SDS011;2151;50.988;11.068;2023-05-16T06:29:38;124.50;;;8.90;;
4274;SDS011;2151;50.988;11.068;2023-05-16T06:32:04;125.50;;;8.37;;
4274;SDS011;2151;50.988;11.068;2023-05-16T06:34:31;124.90;;;9.20;;
4274;SDS011;2151;50.988;11.068;2023-05-16T06:36:57;128.87;;;10.10;;
4274;SDS011;2151;50.988;11.068;2023-05-16T06:39:24;129.60;;;9.70;;
4274;SDS011;2151;50.988;11.068;2023-05-16T06:41:51;126.47;;;8.87;;
4274;SDS011;2151;50.988;11.068;2023-05-16T06:44:22;123.37;;;8.40;;
4274;SDS011;2151;50.988;11.068;2023-05-16T06:46:48;125.30;;;9.00;;
4274;SDS011;2151;50.988;11.068;2023-05-16T06:49:14;124.37;;;9.07;;
4274;SDS011;2151;50.988;11.068;2023-05-16T06:51:41;124.53;;;8.77;;
4274;SDS011;2151;50.988;11.068;2023-05-16T06:54:07;125.00;;;9.30;;
4274;SDS011;2151;50.988;11.068;2023-05-16T06:56:34;127.10;;;8.80;;
4274;SDS011;2151;50.988;11.068;2023-05-16T06:59:00;126.20;;;9.03;;
4274;SDS011;2151;50.988;11.068;2023-05-16T07:01:27;123.33;;;8.33;;
4274;SDS011;2151;50.988;11.068;2023-05-16T07:03:54;121.03;;;8.30;;
4274;SDS011;2151;50.988;11.068;2023-05-16T07:06:20;123.70;;;8.73;;
4274;SDS011;2151;50.988;11.068;2023-05-16T07:08:47;126.07;;;8.30;;
4274;SDS011;2151;50.988;11.068;2023-05-16T07:11:13;123.03;;;8.30;;
4274;SDS011;2151;50.988;11.068;2023-05-16T07:13:40;125.07;;;8.33;;
4274;SDS011;2151;50.988;11.068;2023-05-16T07:16:06;129.70;;;7.77;;
4274;SDS011;2151;50.988;11.068;2023-05-16T07:18:33;124.57;;;8.33;;
4274;SDS011;2151;50.988;11.068;2023-05-16T07:21:00;124.47;;;8.10;;
4274;SDS011;2151;50.988;11.068;2023-05-16T07:23:26;122.03;;;8.00;;
4274;SDS011;2151;50.988;11.068;2023-05-16T07:25:53;124.63;;;8.57;;
4274;SDS011;2151;50.988;11.068;2023-05-16T07:28:19;123.50;;;8.20;;
4274;SDS011;2151;50.988;11.068;2023-05-16T07:30:47;122.37;;;8.17;;
4274;SDS011;2151;50.988;11.068;2023-05-16T07:33:13;126.57;;;8.03;;
4274;SDS011;2151;50.988;11.068;2023-05-16T07:35:40;122.47;;;7.63;;
4274;SDS011;2151;50.988;11.068;2023-05-16T07:38:07;122.97;;;7.80;;
4274;SDS011;2151;50.988;11.068;2023-05-16T07:40:33;124.13;;;8.10;;
4274;SDS011;2151;50.988;11.068;2023-05-16T07:43:00;125.10;;;8.40;;
4274;SDS011;2151;50.988;11.068;2023-05-16T07:45:28;122.70;;;7.70;;
4274;SDS011;2151;50.988;11.068;2023-05-16T07:47:55;121.70;;;7.50;;
4274;SDS011;2151;50.988;11.068;2023-05-16T07:50:21;121.77;;;8.00;;
4274;SDS011;2151;50.988;11.068;2023-05-16T07:52:48;124.53;;;8.30;;
4274;SDS011;2151;50.988;11.068;2023-05-16T07:55:14;124.77;;;7.43;;
4274;SDS011;2151;50.988;11.068;2023-05-16T07:57:43;122.57;;;8.20;;
4274;SDS011;2151;50.988;11.068;2023-05-16T08:00:10;123.10;;;7.87;;
4274;SDS011;2151;50.988;11.068;2023-05-16T08:02:36;121.77;;;7.87;;
4274;SDS011;2151;50.988;11.068;2023-05-16T08:05:03;122.50;;;8.10;;
4274;SDS011;2151;50.988;11.068;2023-05-16T08:07:31;122.97;;;7.60;;
4274;SDS011;2151;50.988;11.068;2023-05-16T08:09:57;121.87;;;7.00;;
4274;SDS011;2151;50.988;11.068;2023-05-16T08:12:24;121.47;;;7.37;;
4274;SDS011;2151;50.988;11.068;2023-05-16T08:14:52;121.17;;;6.70;;
4274;SDS011;2151;50.988;11.068;2023-05-16T08:17:18;125.07;;;7.60;;
4274;SDS011;2151;50.988;11.068;2023-05-16T08:19:45;121.17;;;6.73;;
4274;SDS011;2151;50.988;11.068;2023-05-16T08:22:11;119.77;;;6.20;;
4274;SDS011;2151;50.988;11.068;2023-05-16T08:24:38;119.90;;;7.17;;
4274;SDS011;2151;50.988;11.068;2023-05-16T08:27:05;120.00;;;6.40;;
4274;SDS011;2151;50.988;11.068;2023-05-16T08:29:31;120.57;;;5.77;;
4274;SDS011;2151;50.988;11.068;2023-05-16T08:31:57;119.30;;;6.03;;
4274;SDS011;2151;50.988;11.068;2023-05-16T08:34:24;119.47;;;5.80;;
4274;SDS011;2151;50.988;11.068;2023-05-16T08:36:51;119.13;;;5.90;;
4274;SDS011;2151;50.988;11.068;2023-05-16T08:39:17;119.17;;;5.50;;
4274;SDS011;2151;50.988;11.068;2023-05-16T08:41:44;119.87;;;5.60;;
4274;SDS011;2151;50.988;11.068;2023-05-16T08:44:10;120.30;;;5.70;;
4274;SDS011;2151;50.988;11.068;2023-05-16T08:46:38;118.67;;;5.60;;
4274;SDS011;2151;50.988;11.068;2023-05-16T08:49:07;117.60;;;5.47;;
4274;SDS011;2151;50.988;11.068;2023-05-16T08:51:33;124.63;;;6.77;;
4274;SDS011;2151;50.988;11.068;2023-05-16T08:54:03;118.00;;;5.47;;
4274;SDS011;2151;50.988;11.068;2023-05-16T08:56:30;122.77;;;6.40;;
4274;SDS011;2151;50.988;11.068;2023-05-16T08:58:57;117.67;;;5.33;;
4274;SDS011;2151;50.988;11.068;2023-05-16T09:01:24;117.47;;;5.40;;
4274;SDS011;2151;50.988;11.068;2023-05-16T09:03:50;118.27;;;5.50;;
4274;SDS011;2151;50.988;11.068;2023-05-16T09:06:17;120.70;;;6.30;;
4274;SDS011;2151;50.988;11.068;2023-05-16T09:08:44;126.60;;;5.80;;
4274;SDS011;2151;50.988;11.068;2023-05-16T09:11:11;118.47;;;5.50;;
4274;SDS011;2151;50.988;11.068;2023-05-16T09:13:37;118.27;;;5.47;;
4274;SDS011;2151;50.988;11.068;2023-05-16T09:16:14;118.30;;;5.90;;
4274;SDS011;2151;50.988;11.068;2023-05-16T09:18:53;118.83;;;5.50;;
4274;SDS011;2151;50.988;11.068;2023-05-16T09:21:22;118.60;;;5.40;;
4274;SDS011;2151;50.988;11.068;2023-05-16T09:23:49;118.80;;;5.53;;
4274;SDS011;2151;50.988;11.068;2023-05-16T09:26:16;123.83;;;5.20;;
4274;SDS011;2151;50.988;11.068;2023-05-16T09:28:43;118.10;;;5.10;;
4274;SDS011;2151;50.988;11.068;2023-05-16T09:31:23;119.00;;;5.50;;
4274;SDS011;2151;50.988;11.068;2023-05-16T09:33:55;118.83;;;5.53;;
4274;SDS011;2151;50.988;11.068;2023-05-16T09:36:21;120.93;;;5.47;;
4274;SDS011;2151;50.988;11.068;2023-05-16T09:38:51;121.00;;;5.80;;
4274;SDS011;2151;50.988;11.068;2023-05-16T09:41:17;123.40;;;5.77;;
4274;SDS011;2151;50.988;11.068;2023-05-16T09:43:44;121.67;;;5.93;;
4274;SDS011;2151;50.988;11.068;2023-05-16T09:46:13;121.47;;;5.90;;
4274;SDS011;2151;50.988;11.068;2023-05-16T09:48:45;118.50;;;6.03;;
4274;SDS011;2151;50.988;11.068;2023-05-16T09:51:12;124.73;;;5.70;;
4274;SDS011;2151;50.988;11.068;2023-05-16T09:53:39;119.47;;;5.80;;
4274;SDS011;2151;50.988;11.068;2023-05-16T09:56:09;119.03;;;5.93;;
4274;SDS011;2151;50.988;11.068;2023-05-16T09:58:36;118.97;;;5.30;;
4274;SDS011;2151;50.988;11.068;2023-05-16T10:01:03;120.17;;;5.60;;
4274;SDS011;2151;50.988;11.068;2023-05-16T10:03:34;123.90;;;6.30;;
4274;SDS011;2151;50.988;11.068;2023-05-16T10:06:02;121.80;;;6.00;;
4274;SDS011;2151;50.988;11.068;2023-05-16T10:08:30;120.87;;;5.90;;
4274;SDS011;2151;50.988;11.068;2023-05-16T10:10:56;118.30;;;5.70;;
4274;SDS011;2151;50.988;11.068;2023-05-16T10:13:23;120.63;;;5.90;;
4274;SDS011;2151;50.988;11.068;2023-05-16T10:15:52;119.03;;;5.97;;
4274;SDS011;2151;50.988;11.068;2023-05-16T10:18:20;120.57;;;6.07;;
4274;SDS011;2151;50.988;11.068;2023-05-16T10:20:48;124.83;;;6.27;;
4274;SDS011;2151;50.988;11.068;2023-05-16T10:23:20;122.57;;;6.17;;
4274;SDS011;2151;50.988;11.068;2023-05-16T10:25:47;121.47;;;5.80;;
4274;SDS011;2151;50.988;11.068;2023-05-16T10:28:15;120.10;;;5.80;;
4274;SDS011;2151;50.988;11.068;2023-05-16T10:30:43;119.80;;;5.83;;
4274;SDS011;2151;50.988;11.068;2023-05-16T10:33:14;120.07;;;5.87;;
4274;SDS011;2151;50.988;11.068;2023-05-16T10:35:41;121.67;;;6.07;;
4274;SDS011;2151;50.988;11.068;2023-05-16T10:38:08;122.30;;;6.33;;
4274;SDS011;2151;50.988;11.068;2023-05-16T10:40:37;121.30;;;5.87;;
4274;SDS011;2151;50.988;11.068;2023-05-16T10:43:04;120.60;;;5.77;;
4274;SDS011;2151;50.988;11.068;2023-05-16T10:45:31;121.07;;;6.30;;
4274;SDS011;2151;50.988;11.068;2023-05-16T10:50:43;122.30;;;6.33;;
4274;SDS011;2151;50.988;11.068;2023-05-16T10:53:20;125.10;;;6.33;;
4274;SDS011;2151;50.988;11.068;2023-05-16T10:58:17;123.73;;;6.37;;
4274;SDS011;2151;50.988;11.068;2023-05-16T11:00:45;123.10;;;6.03;;
4274;SDS011;2151;50.988;11.068;2023-05-16T11:03:20;121.90;;;6.10;;
4274;SDS011;2151;50.988;11.068;2023-05-16T11:05:51;125.53;;;6.77;;
4274;SDS011;2151;50.988;11.068;2023-05-16T11:08:17;125.40;;;6.17;;
4274;SDS011;2151;50.988;11.068;2023-05-16T11:10:44;123.17;;;6.30;;
4274;SDS011;2151;50.988;11.068;2023-05-16T11:13:10;123.33;;;6.07;;
4274;SDS011;2151;50.988;11.068;2023-05-16T11:15:37;125.23;;;6.30;;
4274;SDS011;2151;50.988;11.068;2023-05-16T11:18:04;120.93;;;5.57;;
4274;SDS011;2151;50.988;11.068;2023-05-16T11:20:35;120.27;;;5.53;;
4274;SDS011;2151;50.988;11.068;2023-05-16T11:25:42;129.27;;;5.83;;
4274;SDS011;2151;50.988;11.068;2023-05-16T11:28:11;121.37;;;5.37;;
4274;SDS011;2151;50.988;11.068;2023-05-16T11:30:46;120.47;;;5.80;;
4274;SDS011;2151;50.988;11.068;2023-05-16T11:33:12;122.27;;;6.00;;
4274;SDS011;2151;50.988;11.068;2023-05-16T11:35:39;122.83;;;5.87;;
4274;SDS011;2151;50.988;11.068;2023-05-16T11:38:10;121.07;;;5.97;;
4274;SDS011;2151;50.988;11.068;2023-05-16T11:40:40;122.03;;;5.60;;
4274;SDS011;2151;50.988;11.068;2023-05-16T11:43:06;121.13;;;5.57;;
4274;SDS011;2151;50.988;11.068;2023-05-16T11:45:33;118.37;;;5.80;;
4274;SDS011;2151;50.988;11.068;2023-05-16T11:48:03;122.97;;;5.50;;
4274;SDS011;2151;50.988;11.068;2023-05-16T11:50:29;122.27;;;5.87;;
4274;SDS011;2151;50.988;11.068;2023-05-16T11:52:56;122.50;;;5.50;;
4274;SDS011;2151;50.988;11.068;2023-05-16T11:55:24;120.00;;;6.10;;
4274;SDS011;2151;50.988;11.068;2023-05-16T11:58:06;126.07;;;5.67;;
4274;SDS011;2151;50.988;11.068;2023-05-16T12:00:33;119.07;;;5.57;;
4274;SDS011;2151;50.988;11.068;2023-05-16T12:03:00;128.70;;;6.07;;
4274;SDS011;2151;50.988;11.068;2023-05-16T12:05:28;120.47;;;5.80;;
4274;SDS011;2151;50.988;11.068;2023-05-16T12:07:57;120.23;;;6.10;;
4274;SDS011;2151;50.988;11.068;2023-05-16T12:10:25;119.03;;;5.37;;
4274;SDS011;2151;50.988;11.068;2023-05-16T12:12:52;118.50;;;5.60;;
4274;SDS011;2151;50.988;11.068;2023-05-16T12:15:19;121.83;;;5.93;;
4274;SDS011;2151;50.988;11.068;2023-05-16T12:17:46;119.60;;;6.50;;
4274;SDS011;2151;50.988;11.068;2023-05-16T12:20:13;120.70;;;7.97;;
4274;SDS011;2151;50.988;11.068;2023-05-16T12:22:42;119.70;;;7.63;;
4274;SDS011;2151;50.988;11.068;2023-05-16T12:27:47;117.63;;;8.47;;
4274;SDS011;2151;50.988;11.068;2023-05-16T12:30:16;119.90;;;6.90;;
4274;SDS011;2151;50.988;11.068;2023-05-16T12:32:43;120.27;;;7.03;;
4274;SDS011;2151;50.988;11.068;2023-05-16T12:35:10;122.10;;;6.73;;
4274;SDS011;2151;50.988;11.068;2023-05-16T12:37:38;129.37;;;6.40;;
4274;SDS011;2151;50.988;11.068;2023-05-16T12:40:05;123.97;;;6.00;;
4274;SDS011;2151;50.988;11.068;2023-05-16T12:42:31;119.50;;;6.27;;
4274;SDS011;2151;50.988;11.068;2023-05-16T12:44:58;118.43;;;6.60;;
4274;SDS011;2151;50.988;11.068;2023-05-16T12:47:33;119.87;;;7.37;;
4274;SDS011;2151;50.988;11.068;2023-05-16T12:50:00;121.33;;;9.17;;
4274;SDS011;2151;50.988;11.068;2023-05-16T12:52:27;123.27;;;9.37;;
4274;SDS011;2151;50.988;11.068;2023-05-16T12:54:54;127.07;;;9.60;;
4274;SDS011;2151;50.988;11.068;2023-05-16T12:57:20;123.70;;;9.90;;
4274;SDS011;2151;50.988;11.068;2023-05-16T12:59:47;119.60;;;8.27;;
4274;SDS011;2151;50.988;11.068;2023-05-16T13:02:13;122.83;;;7.30;;
4274;SDS011;2151;50.988;11.068;2023-05-16T13:04:40;120.00;;;6.13;;
4274;SDS011;2151;50.988;11.068;2023-05-16T13:07:08;127.77;;;6.87;;
4274;SDS011;2151;50.988;11.068;2023-05-16T13:09:37;121.97;;;6.00;;
4274;SDS011;2151;50.988;11.068;2023-05-16T13:12:03;116.87;;;6.53;;
4274;SDS011;2151;50.988;11.068;2023-05-16T13:14:30;120.63;;;5.50;;
4274;SDS011;2151;50.988;11.068;2023-05-16T13:16:56;117.47;;;5.23;;
4274;SDS011;2151;50.988;11.068;2023-05-16T13:19:23;117.13;;;5.53;;
4274;SDS011;2151;50.988;11.068;2023-05-16T13:21:49;118.87;;;5.50;;
4274;SDS011;2151;50.988;11.068;2023-05-16T13:24:16;117.77;;;5.90;;
4274;SDS011;2151;50.988;11.068;2023-05-16T13:26:42;122.87;;;5.80;;
4274;SDS011;2151;50.988;11.068;2023-05-16T13:29:09;117.73;;;5.60;;
4274;SDS011;2151;50.988;11.068;2023-05-16T13:31:36;120.87;;;5.80;;
4274;SDS011;2151;50.988;11.068;2023-05-16T13:34:03;120.97;;;5.83;;
4274;SDS011;2151;50.988;11.068;2023-05-16T13:36:29;118.30;;;5.50;;
4274;SDS011;2151;50.988;11.068;2023-05-16T13:39:16;126.57;;;6.10;;
4274;SDS011;2151;50.988;11.068;2023-05-16T13:41:43;120.40;;;5.87;;
4274;SDS011;2151;50.988;11.068;2023-05-16T13:44:12;121.23;;;5.67;;
4274;SDS011;2151;50.988;11.068;2023-05-16T13:46:38;119.53;;;5.60;;
4274;SDS011;2151;50.988;11.068;2023-05-16T13:49:05;118.40;;;5.60;;
4274;SDS011;2151;50.988;11.068;2023-05-16T13:51:32;126.87;;;5.60;;
4274;SDS011;2151;50.988;11.068;2023-05-16T13:53:59;119.87;;;5.40;;
4274;SDS011;2151;50.988;11.068;2023-05-16T13:56:25;122.70;;;5.40;;
4274;SDS011;2151;50.988;11.068;2023-05-16T13:58:52;115.57;;;5.00;;
4274;SDS011;2151;50.988;11.068;2023-05-16T14:01:24;121.27;;;5.23;;
4274;SDS011;2151;50.988;11.068;2023-05-16T14:03:50;120.30;;;5.63;;
4274;SDS011;2151;50.988;11.068;2023-05-16T14:06:17;118.47;;;4.83;;
4274;SDS011;2151;50.988;11.068;2023-05-16T14:08:43;119.83;;;5.70;;
4274;SDS011;2151;50.988;11.068;2023-05-16T14:11:10;119.43;;;5.90;;
4274;SDS011;2151;50.988;11.068;2023-05-16T14:13:37;122.17;;;5.90;;
4274;SDS011;2151;50.988;11.068;2023-05-16T14:16:05;117.87;;;5.97;;
4274;SDS011;2151;50.988;11.068;2023-05-16T14:18:32;122.00;;;6.47;;
4274;SDS011;2151;50.988;11.068;2023-05-16T14:20:59;119.43;;;6.20;;
4274;SDS011;2151;50.988;11.068;2023-05-16T14:23:25;118.20;;;6.33;;
4274;SDS011;2151;50.988;11.068;2023-05-16T14:25:52;115.97;;;5.53;;
4274;SDS011;2151;50.988;11.068;2023-05-16T14:28:18;118.73;;;5.80;;
4274;SDS011;2151;50.988;11.068;2023-05-16T14:30:44;121.23;;;6.10;;
4274;SDS011;2151;50.988;11.068;2023-05-16T14:33:13;119.73;;;6.07;;
4274;SDS011;2151;50.988;11.068;2023-05-16T14:35:39;116.50;;;6.30;;
4274;SDS011;2151;50.988;11.068;2023-05-16T14:38:06;120.47;;;5.97;;
4274;SDS011;2151;50.988;11.068;2023-05-16T14:40:33;120.80;;;6.70;;
4274;SDS011;2151;50.988;11.068;2023-05-16T14:42:59;120.60;;;7.00;;
4274;SDS011;2151;50.988;11.068;2023-05-16T14:45:26;120.90;;;7.33;;
4274;SDS011;2151;50.988;11.068;2023-05-16T14:47:52;117.17;;;7.83;;
4274;SDS011;2151;50.988;11.068;2023-05-16T14:50:19;117.17;;;7.87;;
4274;SDS011;2151;50.988;11.068;2023-05-16T14:52:46;119.57;;;8.33;;
4274;SDS011;2151;50.988;11.068;2023-05-16T14:55:12;119.90;;;8.23;;
4274;SDS011;2151;50.988;11.068;2023-05-16T14:57:39;121.60;;;7.93;;
4274;SDS011;2151;50.988;11.068;2023-05-16T15:00:08;121.57;;;8.70;;